Rossville, Pennsylvania
Current Conditions -  °F | °C
As of 6:53 AM on Sunday 25 Jan 2015 (Local Time) from KTHV Reporting Station
Overcast Overcast  
Wind Chill:   Ceiling: 4000
Heat Index:   Visibility: 10mi
Dew Point: -2°   Wind: 7mph
Humidity: 70%   Direction: 220°SW
Pressure: 29.75"   Gusts: NA
Location:  40.06°N, 76.91°W
Report Text: KTHV 251153Z AUTO 22006KT 10SM OVC040 03/M02 A2975 RMK AO2 SLP081 70014 T00281022 10033 20017 53025
Loading
Personal Weather Stations






























Interactive Weather Map New forecast layout! Learn more

10-Day Weather Forecast

Advertisements
Track Severe Weather on mobile